createdAt,value
2023-04-02T00:01:38.587Z,8.96
2023-04-02T00:04:23.448Z,8.97
2023-04-02T00:07:33.332Z,8.98
2023-04-02T00:10:00.212Z,8.99
2023-04-02T00:12:26.959Z,9.00
2023-04-02T00:15:04.831Z,8.99
2023-04-02T00:17:31.689Z,8.99
2023-04-02T00:20:06.669Z,8.99
2023-04-02T00:22:33.776Z,8.99
2023-04-02T00:25:07.315Z,8.98
2023-04-02T00:27:35.939Z,8.97
2023-04-02T00:30:03.833Z,8.96
2023-04-02T00:32:33.475Z,8.92
2023-04-02T00:35:01.686Z,8.90
2023-04-02T00:37:38.108Z,8.90
2023-04-02T00:40:09.425Z,8.88
2023-04-02T00:42:39.730Z,8.88
2023-04-02T00:45:18.232Z,8.87
2023-04-02T00:47:45.086Z,8.86
2023-04-02T00:50:11.843Z,8.84
2023-04-02T00:52:42.701Z,8.83
2023-04-02T00:55:22.768Z,8.81
2023-04-02T00:57:50.952Z,8.77
2023-04-02T01:00:30.220Z,8.75
2023-04-02T01:03:13.510Z,8.71
2023-04-02T01:05:42.043Z,8.68
2023-04-02T01:08:11.951Z,8.67
2023-04-02T01:10:50.926Z,8.65
2023-04-02T01:13:26.856Z,8.63
2023-04-02T01:16:19.399Z,8.62
2023-04-02T01:18:56.027Z,8.62
2023-04-02T01:21:37.499Z,8.63
2023-04-02T01:24:05.769Z,8.64
2023-04-02T01:26:40.337Z,8.66
2023-04-02T01:29:13.695Z,8.67
2023-04-02T01:31:41.936Z,8.67
2023-04-02T01:34:13.810Z,8.67
2023-04-02T01:36:44.457Z,8.65
2023-04-02T01:39:55.735Z,8.63
2023-04-02T01:43:01.961Z,8.63
2023-04-02T01:45:29.250Z,8.62
2023-04-02T01:47:56.328Z,8.61
2023-04-02T01:50:36.554Z,8.60
2023-04-02T01:53:08.016Z,8.60
2023-04-02T01:55:46.418Z,8.60
2023-04-02T01:58:19.339Z,8.61
2023-04-02T02:01:11.745Z,8.61
2023-04-02T02:03:42.151Z,8.57
2023-04-02T02:06:16.038Z,8.62
2023-04-02T02:09:03.433Z,8.62
2023-04-02T02:11:32.652Z,8.63
2023-04-02T02:14:01.635Z,8.63
2023-04-02T02:16:31.731Z,8.62
2023-04-02T02:19:04.288Z,8.61
2023-04-02T02:21:33.946Z,8.59
2023-04-02T02:24:04.348Z,8.58
2023-04-02T02:26:35.425Z,8.56
2023-04-02T02:29:06.529Z,8.56
2023-04-02T02:31:35.655Z,8.55
2023-04-02T02:34:08.593Z,8.53
2023-04-02T02:37:04.682Z,8.52
2023-04-02T02:39:45.263Z,8.51
2023-04-02T02:42:24.178Z,8.50
2023-04-02T02:44:54.035Z,8.45
2023-04-02T02:47:35.709Z,8.49
2023-04-02T02:50:07.506Z,8.49
2023-04-02T02:52:36.405Z,8.49
2023-04-02T02:55:21.474Z,8.49
2023-04-02T02:58:03.929Z,8.50
2023-04-02T03:00:37.178Z,8.49
2023-04-02T03:03:08.964Z,8.48
2023-04-02T03:05:38.673Z,8.47
2023-04-02T03:08:33.612Z,8.46
2023-04-02T03:11:22.751Z,8.46
2023-04-02T03:13:54.672Z,8.45
2023-04-02T03:16:33.980Z,8.44
2023-04-02T03:19:22.701Z,8.43
2023-04-02T03:22:18.645Z,8.42
2023-04-02T03:25:10.887Z,8.41
2023-04-02T03:27:42.728Z,8.39
2023-04-02T03:30:37.865Z,8.38
2023-04-02T03:33:43.819Z,8.36
2023-04-02T03:36:28.037Z,8.33
2023-04-02T03:39:00.742Z,8.30
2023-04-02T03:41:38.775Z,8.28
2023-04-02T03:44:18.564Z,8.27
2023-04-02T03:46:56.979Z,8.26
2023-04-02T03:49:43.952Z,8.25
2023-04-02T03:52:25.443Z,8.24
2023-04-02T03:55:09.827Z,8.22
2023-04-02T03:57:43.707Z,8.23
2023-04-02T04:00:26.805Z,8.23
2023-04-02T04:03:02.110Z,8.25
2023-04-02T04:05:37.298Z,8.25
2023-04-02T04:08:16.456Z,8.27
2023-04-02T04:10:43.789Z,8.27
2023-04-02T04:13:17.362Z,8.27
2023-04-02T04:15:53.556Z,8.28
2023-04-02T04:18:34.367Z,8.28
2023-04-02T04:21:36.581Z,8.28
2023-04-02T04:24:23.911Z,8.27
2023-04-02T04:27:09.643Z,8.27
2023-04-02T04:29:55.798Z,8.27
2023-04-02T04:32:34.181Z,8.26
2023-04-02T04:35:19.103Z,8.26
2023-04-02T04:37:49.425Z,8.26
2023-04-02T04:40:23.257Z,8.26
2023-04-02T04:42:54.481Z,8.26
2023-04-02T04:45:55.330Z,8.26
2023-04-02T04:48:36.439Z,8.26
2023-04-02T04:51:08.235Z,8.28
2023-04-02T04:53:47.015Z,8.28
2023-04-02T04:56:19.830Z,8.27
2023-04-02T04:59:04.729Z,8.27
2023-04-02T05:01:35.050Z,8.29
2023-04-02T05:04:35.888Z,8.29
2023-04-02T05:07:20.938Z,8.31
2023-04-02T05:10:19.243Z,8.31
2023-04-02T05:12:58.890Z,8.31
2023-04-02T05:15:41.650Z,8.31
2023-04-02T05:18:17.763Z,8.32
2023-04-02T05:21:11.777Z,8.32
2023-04-02T05:24:19.243Z,8.33
2023-04-02T05:26:49.794Z,8.33
2023-04-02T05:29:45.511Z,8.34
2023-04-02T05:32:25.471Z,8.35
2023-04-02T05:34:56.550Z,8.37
2023-04-02T05:37:27.244Z,8.38
2023-04-02T05:39:57.928Z,8.38
2023-04-02T05:42:30.420Z,8.39
2023-04-02T05:45:30.906Z,8.41
2023-04-02T05:48:02.314Z,8.45
2023-04-02T05:50:42.764Z,8.47
2023-04-02T05:53:25.158Z,8.49
2023-04-02T05:56:01.450Z,8.51
2023-04-02T05:58:46.801Z,8.52
2023-04-02T06:01:46.812Z,8.51
2023-04-02T06:04:21.051Z,8.53
2023-04-02T06:07:05.548Z,8.53
2023-04-02T06:09:39.039Z,8.55
2023-04-02T06:12:14.583Z,8.54
2023-04-02T06:14:41.881Z,8.53
2023-04-02T06:17:18.370Z,8.55
2023-04-02T06:19:47.345Z,8.56
2023-04-02T06:22:27.024Z,8.59
2023-04-02T06:25:06.188Z,8.59
2023-04-02T06:27:41.599Z,8.59
2023-04-02T06:30:18.907Z,8.61
2023-04-02T06:32:48.775Z,8.63
2023-04-02T06:35:16.564Z,8.62
2023-04-02T06:37:49.264Z,8.63
2023-04-02T06:40:38.569Z,8.64
2023-04-02T06:43:32.663Z,8.66
2023-04-02T06:46:35.508Z,8.64
2023-04-02T06:49:21.451Z,8.69
2023-04-02T06:51:53.776Z,8.69
2023-04-02T06:54:21.732Z,8.70
2023-04-02T06:56:55.909Z,8.71
2023-04-02T06:59:30.917Z,8.72
2023-04-02T07:02:06.981Z,8.74
2023-04-02T07:04:34.291Z,8.72
2023-04-02T07:07:02.072Z,8.69
2023-04-02T07:09:32.572Z,8.66
2023-04-02T07:12:01.911Z,8.65
2023-04-02T07:14:29.785Z,8.61
2023-04-02T07:16:56.689Z,8.65
2023-04-02T07:19:23.938Z,8.66
2023-04-02T07:21:55.421Z,8.67
2023-04-02T07:24:23.816Z,8.68
2023-04-02T07:26:50.894Z,8.71
2023-04-02T07:29:17.937Z,8.71
2023-04-02T07:31:45.194Z,8.72
2023-04-02T07:34:12.022Z,8.75
2023-04-02T07:36:38.864Z,8.76
2023-04-02T07:39:05.998Z,8.78
2023-04-02T07:41:33.117Z,8.80
2023-04-02T07:44:00.181Z,8.80
2023-04-02T07:46:27.170Z,8.80
2023-04-02T07:48:54.012Z,8.81
2023-04-02T07:51:24.033Z,8.79
2023-04-02T07:53:55.046Z,8.78
2023-04-02T07:56:24.416Z,8.77
2023-04-02T07:58:51.798Z,8.78
2023-04-02T08:01:25.123Z,8.79
2023-04-02T08:03:54.761Z,8.81
2023-04-02T08:06:22.699Z,8.82
2023-04-02T08:08:50.214Z,8.83
2023-04-02T08:11:17.491Z,8.85
2023-04-02T08:13:44.563Z,8.84
2023-04-02T08:16:11.682Z,8.84
2023-04-02T08:18:39.136Z,8.83
2023-04-02T08:21:08.411Z,8.85
2023-04-02T08:23:37.030Z,8.86
2023-04-02T08:26:06.139Z,8.87
2023-04-02T08:28:33.775Z,8.88
2023-04-02T08:31:01.588Z,8.89
2023-04-02T08:33:28.520Z,8.92
2023-04-02T08:35:55.753Z,8.95
2023-04-02T08:38:23.018Z,8.98
2023-04-02T08:40:54.061Z,9.00
2023-04-02T08:43:40.217Z,9.01
2023-04-02T08:46:54.377Z,9.06
2023-04-02T08:49:35.894Z,9.07
2023-04-02T08:52:03.804Z,9.11
2023-04-02T08:54:37.473Z,9.13
2023-04-02T08:57:04.588Z,9.17
2023-04-02T08:59:35.501Z,9.22
2023-04-02T09:02:25.485Z,9.26
2023-04-02T09:04:52.748Z,9.30
2023-04-02T09:07:33.129Z,9.32
2023-04-02T09:10:00.542Z,9.34
2023-04-02T09:12:31.200Z,9.37
2023-04-02T09:15:10.651Z,9.38
2023-04-02T09:17:50.722Z,9.39
2023-04-02T09:20:28.837Z,9.42
2023-04-02T09:22:56.864Z,9.46
2023-04-02T09:25:30.881Z,9.47
2023-04-02T09:28:01.421Z,9.51
2023-04-02T09:30:31.268Z,9.53
2023-04-02T09:33:08.566Z,9.56
2023-04-02T09:35:55.137Z,9.57
2023-04-02T09:38:27.770Z,9.58
2023-04-02T09:40:54.809Z,9.58
2023-04-02T09:43:29.471Z,9.56
2023-04-02T09:46:17.335Z,9.57
2023-04-02T09:48:48.583Z,9.58
2023-04-02T09:51:20.898Z,9.57
2023-04-02T09:53:50.295Z,9.56
2023-04-02T09:56:21.261Z,9.55
2023-04-02T09:59:17.485Z,9.55
2023-04-02T10:01:58.224Z,9.53
2023-04-02T10:04:46.442Z,9.54
2023-04-02T10:07:36.314Z,9.53
2023-04-02T10:10:29.048Z,9.55
2023-04-02T10:13:17.146Z,9.57
2023-04-02T10:15:47.077Z,9.61
2023-04-02T10:18:41.118Z,9.64
2023-04-02T10:21:11.708Z,9.71
2023-04-02T10:23:38.897Z,9.80
2023-04-02T10:26:11.531Z,9.87
2023-04-02T10:29:00.095Z,9.94
2023-04-02T10:31:52.773Z,10.01
2023-04-02T10:34:33.661Z,10.11
2023-04-02T10:37:33.249Z,10.21
2023-04-02T10:40:09.949Z,10.27
2023-04-02T10:42:58.745Z,10.37
2023-04-02T10:45:50.307Z,10.53
2023-04-02T10:48:17.145Z,10.65
2023-04-02T10:51:09.962Z,10.78
2023-04-02T10:53:43.580Z,10.83
2023-04-02T10:56:12.266Z,10.89
2023-04-02T10:58:52.397Z,10.98
2023-04-02T11:01:25.573Z,11.15
2023-04-02T11:03:59.437Z,11.28
2023-04-02T11:06:31.862Z,11.48
2023-04-02T11:09:04.450Z,11.67
2023-04-02T11:11:39.713Z,11.83
2023-04-02T11:14:18.502Z,11.83
2023-04-02T11:16:48.911Z,11.92
2023-04-02T11:19:15.969Z,11.99
2023-04-02T11:21:58.713Z,12.03
2023-04-02T11:24:29.895Z,12.05
2023-04-02T11:27:20.200Z,12.02
2023-04-02T11:30:15.717Z,12.02
2023-04-02T11:32:46.905Z,11.97
2023-04-02T11:35:32.466Z,11.90
2023-04-02T11:38:09.719Z,11.88
2023-04-02T11:40:57.691Z,11.82
2023-04-02T11:43:33.879Z,11.82
2023-04-02T11:46:01.983Z,11.76
2023-04-02T11:48:31.036Z,11.66
2023-04-02T11:50:58.176Z,11.65
2023-04-02T11:53:33.942Z,11.65
2023-04-02T11:56:20.830Z,11.59
2023-04-02T11:58:59.778Z,11.49
2023-04-02T12:01:32.352Z,11.46
2023-04-02T12:04:28.040Z,11.43
2023-04-02T12:06:54.766Z,11.49
2023-04-02T12:09:28.165Z,11.52
2023-04-02T12:11:59.343Z,11.50
2023-04-02T12:14:48.075Z,11.55
2023-04-02T12:17:23.686Z,11.57
2023-04-02T12:19:54.897Z,11.60
2023-04-02T12:22:27.976Z,11.67
2023-04-02T12:24:59.243Z,11.74
2023-04-02T12:27:28.976Z,11.72
2023-04-02T12:30:12.053Z,11.62
2023-04-02T12:32:38.971Z,11.59
2023-04-02T12:35:07.774Z,11.58
2023-04-02T12:37:34.834Z,11.50
2023-04-02T12:40:15.659Z,11.52
2023-04-02T12:42:42.460Z,11.52
2023-04-02T12:45:29.617Z,11.53
2023-04-02T12:47:57.734Z,11.52
2023-04-02T12:50:24.977Z,11.47
2023-04-02T12:52:55.204Z,11.47
2023-04-02T12:55:24.470Z,11.41
2023-04-02T12:57:56.403Z,11.34
2023-04-02T13:00:24.437Z,11.35
2023-04-02T13:03:13.074Z,11.38
2023-04-02T13:05:46.325Z,11.42
2023-04-02T13:08:24.027Z,11.47
2023-04-02T13:10:57.433Z,11.48
2023-04-02T13:13:32.890Z,11.53
2023-04-02T13:16:07.208Z,11.61
2023-04-02T13:18:37.224Z,11.64
2023-04-02T13:21:27.739Z,11.58
2023-04-02T13:23:55.579Z,11.60
2023-04-02T13:26:25.797Z,11.61
2023-04-02T13:29:08.927Z,11.64
2023-04-02T13:31:35.772Z,11.60
2023-04-02T13:34:02.614Z,11.56
2023-04-02T13:36:30.220Z,11.51
2023-04-02T13:38:57.093Z,11.43
2023-04-02T13:41:27.373Z,11.40
2023-04-02T13:43:57.523Z,11.39
2023-04-02T13:46:27.505Z,11.36
2023-04-02T13:48:55.693Z,11.33
2023-04-02T13:51:33.877Z,11.32
2023-04-02T13:54:00.720Z,11.31
2023-04-02T13:56:28.268Z,11.30
2023-04-02T13:58:55.181Z,11.28
2023-04-02T14:01:23.636Z,11.28
2023-04-02T14:03:51.310Z,11.28
2023-04-02T14:06:51.527Z,11.25
2023-04-02T14:09:55.444Z,11.21
2023-04-02T14:12:44.018Z,11.13
2023-04-02T14:15:19.555Z,11.07
2023-04-02T14:18:16.146Z,11.02
2023-04-02T14:21:04.028Z,10.97
2023-04-02T14:23:49.240Z,10.96
2023-04-02T14:26:21.780Z,10.94
2023-04-02T14:29:18.902Z,10.91
2023-04-02T14:31:59.496Z,10.88
2023-04-02T14:34:32.166Z,10.84
2023-04-02T14:37:17.297Z,10.80
2023-04-02T14:40:17.784Z,10.75
2023-04-02T14:43:16.798Z,10.71
2023-04-02T14:45:58.142Z,10.68
2023-04-02T14:48:47.342Z,10.64
2023-04-02T14:51:23.323Z,10.61
2023-04-02T14:54:14.615Z,10.58
2023-04-02T14:56:57.985Z,10.55
2023-04-02T14:59:27.970Z,10.52
2023-04-02T15:02:23.844Z,10.49
2023-04-02T15:04:59.592Z,10.47
2023-04-02T15:07:39.241Z,10.45
2023-04-02T15:10:10.985Z,10.45
2023-04-02T15:12:40.558Z,10.46
2023-04-02T15:15:24.382Z,10.45
2023-04-02T15:17:58.514Z,10.41
2023-04-02T15:20:33.809Z,10.39
2023-04-02T15:23:05.150Z,10.37
2023-04-02T15:25:55.359Z,10.37
2023-04-02T15:28:29.145Z,10.33
2023-04-02T15:31:03.177Z,10.31
2023-04-02T15:33:33.212Z,10.29
2023-04-02T15:36:21.014Z,10.26
2023-04-02T15:38:56.199Z,10.23
2023-04-02T15:41:31.685Z,10.19
2023-04-02T15:44:16.522Z,10.14
2023-04-02T15:46:50.206Z,10.11
2023-04-02T15:49:39.125Z,10.04
2023-04-02T15:52:20.183Z,9.95
2023-04-02T15:55:21.971Z,9.88
2023-04-02T15:58:13.931Z,9.83
2023-04-02T16:00:51.622Z,9.78
2023-04-02T16:03:33.480Z,9.76
2023-04-02T16:06:52.819Z,9.73
2023-04-02T16:09:51.801Z,9.67
2023-04-02T16:12:20.794Z,9.62
2023-04-02T16:14:49.546Z,9.59
2023-04-02T16:17:25.406Z,9.56
2023-04-02T16:19:56.498Z,9.52
2023-04-02T16:22:29.945Z,9.49
2023-04-02T16:25:18.840Z,9.45
2023-04-02T16:28:04.048Z,9.42
2023-04-02T16:30:56.136Z,9.40
2023-04-02T16:33:29.608Z,9.37
2023-04-02T16:36:05.856Z,9.35
2023-04-02T16:38:45.262Z,9.33
2023-04-02T16:41:15.656Z,9.29
2023-04-02T16:43:55.099Z,9.31
2023-04-02T16:46:40.338Z,9.29
2023-04-02T16:49:16.475Z,9.27
2023-04-02T16:51:56.250Z,9.24
2023-04-02T16:54:47.982Z,9.20
2023-04-02T16:57:30.715Z,9.19
2023-04-02T17:00:37.352Z,9.18
2023-04-02T17:03:39.890Z,9.18
2023-04-02T17:06:31.575Z,9.17
2023-04-02T17:09:23.237Z,9.17
2023-04-02T17:12:03.703Z,9.17
2023-04-02T17:14:38.399Z,9.16
2023-04-02T17:17:05.495Z,9.16
2023-04-02T17:19:32.613Z,9.14
2023-04-02T17:22:02.767Z,9.12
2023-04-02T17:24:35.355Z,9.07
2023-04-02T17:27:27.640Z,9.06
2023-04-02T17:30:25.628Z,9.04
2023-04-02T17:32:52.626Z,9.02
2023-04-02T17:35:27.599Z,9.02
2023-04-02T17:38:09.477Z,9.02
2023-04-02T17:40:42.113Z,9.00
2023-04-02T17:43:30.850Z,8.99
2023-04-02T17:46:09.063Z,8.97
2023-04-02T17:48:46.306Z,8.96
2023-04-02T17:51:16.148Z,8.97
2023-04-02T17:54:17.684Z,8.97
2023-04-02T17:57:05.721Z,8.97
2023-04-02T18:00:03.854Z,8.98
2023-04-02T18:02:48.084Z,8.98
2023-04-02T18:05:31.641Z,8.98
2023-04-02T18:08:33.657Z,8.98
2023-04-02T18:11:21.315Z,8.97
2023-04-02T18:13:51.080Z,8.96
2023-04-02T18:16:39.580Z,8.96
2023-04-02T18:19:16.924Z,8.95
2023-04-02T18:21:52.806Z,8.94
2023-04-02T18:24:37.626Z,8.93
2023-04-02T18:27:23.710Z,8.95
2023-04-02T18:30:08.953Z,8.95
2023-04-02T18:33:02.020Z,8.96
2023-04-02T18:35:56.177Z,8.95
2023-04-02T18:39:01.922Z,8.95
2023-04-02T18:41:34.741Z,8.97
2023-04-02T18:44:20.360Z,8.98
2023-04-02T18:46:53.822Z,8.99
2023-04-02T18:49:39.935Z,8.98
2023-04-02T18:52:15.956Z,8.98
2023-04-02T18:54:48.356Z,8.99
2023-04-02T18:57:23.410Z,9.00
2023-04-02T19:00:09.200Z,9.02
2023-04-02T19:02:46.807Z,9.04
2023-04-02T19:05:24.241Z,9.05
2023-04-02T19:08:01.980Z,9.03
2023-04-02T19:10:33.260Z,8.95
2023-04-02T19:13:00.988Z,9.00
2023-04-02T19:15:47.723Z,8.99
2023-04-02T19:18:35.509Z,8.98
2023-04-02T19:21:43.105Z,8.97
2023-04-02T19:24:10.756Z,8.93
2023-04-02T19:27:02.760Z,8.88
2023-04-02T19:29:35.715Z,8.83
2023-04-02T19:32:27.857Z,8.80
2023-04-02T19:35:17.697Z,8.76
2023-04-02T19:38:08.332Z,8.71
2023-04-02T19:40:51.213Z,8.68
2023-04-02T19:43:18.324Z,8.62
2023-04-02T19:45:48.610Z,8.62
2023-04-02T19:48:18.750Z,8.60
2023-04-02T19:50:47.332Z,8.59
2023-04-02T19:53:15.148Z,8.58
2023-04-02T19:55:43.043Z,8.57
2023-04-02T19:58:36.289Z,8.55
2023-04-02T20:01:03.673Z,8.54
2023-04-02T20:03:31.029Z,8.53
2023-04-02T20:05:59.114Z,8.51
2023-04-02T20:08:27.487Z,8.49
2023-04-02T20:10:55.476Z,8.49
2023-04-02T20:13:22.373Z,8.48
2023-04-02T20:15:50.990Z,8.48
2023-04-02T20:18:19.787Z,8.46
2023-04-02T20:20:48.182Z,8.44
2023-04-02T20:23:19.554Z,8.44
2023-04-02T20:25:47.773Z,8.44
2023-04-02T20:28:14.594Z,8.43
2023-04-02T20:30:41.637Z,8.41
2023-04-02T20:33:08.749Z,8.40
2023-04-02T20:35:37.284Z,8.38
2023-04-02T20:38:06.211Z,8.34
2023-04-02T20:40:33.453Z,8.31
2023-04-02T20:43:00.414Z,8.28
2023-04-02T20:45:28.856Z,8.26
2023-04-02T20:47:56.180Z,8.23
2023-04-02T20:50:24.199Z,8.20
2023-04-02T20:52:51.759Z,8.15
2023-04-02T20:55:18.722Z,8.11
2023-04-02T20:57:46.101Z,8.05
2023-04-02T21:00:14.200Z,8.00
2023-04-02T21:02:41.306Z,7.96
2023-04-02T21:05:08.634Z,7.91
2023-04-02T21:07:35.523Z,7.88
2023-04-02T21:10:02.386Z,7.84
2023-04-02T21:12:30.710Z,7.82
2023-04-02T21:14:59.734Z,7.79
2023-04-02T21:17:28.826Z,7.76
2023-04-02T21:19:55.614Z,7.74
2023-04-02T21:22:22.763Z,7.70
2023-04-02T21:24:49.782Z,7.68
2023-04-02T21:27:16.919Z,7.66
2023-04-02T21:29:43.746Z,7.64
2023-04-02T21:32:20.697Z,7.63
2023-04-02T21:34:48.486Z,7.61
2023-04-02T21:37:15.222Z,7.60
2023-04-02T21:39:42.096Z,7.60
2023-04-02T21:42:10.598Z,7.59
2023-04-02T21:44:37.341Z,7.58
2023-04-02T21:47:04.148Z,7.57
2023-04-02T21:49:30.963Z,7.56
2023-04-02T21:51:57.789Z,7.55
2023-04-02T21:54:25.264Z,7.54
2023-04-02T21:56:52.799Z,7.53
2023-04-02T21:59:20.112Z,7.52
2023-04-02T22:01:49.418Z,7.50
2023-04-02T22:04:19.406Z,7.48
2023-04-02T22:06:47.208Z,7.47
2023-04-02T22:09:17.177Z,7.47
2023-04-02T22:11:46.735Z,7.46
2023-04-02T22:14:14.451Z,7.46
2023-04-02T22:16:41.893Z,7.46
2023-04-02T22:19:13.946Z,7.46
2023-04-02T22:21:42.045Z,7.46
2023-04-02T22:24:13.060Z,7.45
2023-04-02T22:26:40.866Z,7.45
2023-04-02T22:29:08.039Z,7.46
2023-04-02T22:31:35.569Z,7.45
2023-04-02T22:34:05.053Z,7.44
2023-04-02T22:36:33.420Z,7.44
2023-04-02T22:39:04.495Z,7.42
2023-04-02T22:41:31.607Z,7.40
2023-04-02T22:44:00.780Z,7.36
2023-04-02T22:46:28.947Z,7.34
2023-04-02T22:48:56.580Z,7.32
2023-04-02T22:51:24.870Z,7.31
2023-04-02T22:53:53.675Z,7.29
2023-04-02T22:56:27.136Z,7.27
2023-04-02T22:58:53.943Z,7.25
2023-04-02T23:01:23.848Z,7.22
2023-04-02T23:03:53.587Z,7.19
2023-04-02T23:06:20.802Z,7.16
2023-04-02T23:08:47.678Z,7.14
2023-04-02T23:11:26.837Z,7.14
2023-04-02T23:13:56.171Z,7.11
2023-04-02T23:16:26.188Z,7.12
2023-04-02T23:18:53.748Z,7.10
2023-04-02T23:21:21.552Z,7.08
2023-04-02T23:23:48.637Z,7.08
2023-04-02T23:26:17.169Z,7.07
2023-04-02T23:28:44.264Z,7.04
2023-04-02T23:31:13.991Z,7.02
2023-04-02T23:33:41.110Z,6.99
2023-04-02T23:36:24.968Z,6.97
2023-04-02T23:38:54.896Z,6.95
2023-04-02T23:41:23.736Z,6.92
2023-04-02T23:43:51.068Z,6.90
2023-04-02T23:46:18.607Z,6.88
2023-04-02T23:48:46.303Z,6.86
2023-04-02T23:51:13.463Z,6.84
2023-04-02T23:53:40.713Z,6.81
2023-04-02T23:56:07.559Z,6.78
2023-04-02T23:58:34.799Z,6.75
